sensor_id;sensor_type;location;lat;lon;timestamp;temperature;humidity
16392;DHT22;8305;-33.882;151.134;2022-10-31T00:00:32;26.40;99.90
16392;DHT22;8305;-33.882;151.134;2022-10-31T00:03:03;26.60;99.90
16392;DHT22;8305;-33.882;151.134;2022-10-31T00:05:34;26.60;99.90
16392;DHT22;8305;-33.882;151.134;2022-10-31T00:08:05;26.50;99.90
16392;DHT22;8305;-33.882;151.134;2022-10-31T00:10:38;26.50;99.90
16392;DHT22;8305;-33.882;151.134;2022-10-31T00:13:10;26.60;99.90
16392;DHT22;8305;-33.882;151.134;2022-10-31T00:15:43;26.60;99.90
16392;DHT22;8305;-33.882;151.134;2022-10-31T00:18:13;26.60;99.90
16392;DHT22;8305;-33.882;151.134;2022-10-31T00:20:44;26.70;99.90
16392;DHT22;8305;-33.882;151.134;2022-10-31T00:23:15;26.60;99.90
16392;DHT22;8305;-33.882;151.134;2022-10-31T00:25:46;26.60;99.90
16392;DHT22;8305;-33.882;151.134;2022-10-31T00:28:16;26.50;99.90
16392;DHT22;8305;-33.882;151.134;2022-10-31T00:30:49;26.50;99.90
16392;DHT22;8305;-33.882;151.134;2022-10-31T00:33:20;26.30;99.90
16392;DHT22;8305;-33.882;151.134;2022-10-31T00:35:51;26.20;99.90
16392;DHT22;8305;-33.882;151.134;2022-10-31T00:38:22;26.20;99.90
16392;DHT22;8305;-33.882;151.134;2022-10-31T00:40:52;26.40;99.90
16392;DHT22;8305;-33.882;151.134;2022-10-31T00:43:23;26.70;99.90
16392;DHT22;8305;-33.882;151.134;2022-10-31T00:45:56;26.90;99.90
16392;DHT22;8305;-33.882;151.134;2022-10-31T00:48:30;27.00;99.90
16392;DHT22;8305;-33.882;151.134;2022-10-31T00:51:01;27.20;99.90
16392;DHT22;8305;-33.882;151.134;2022-10-31T00:53:32;27.30;99.90
16392;DHT22;8305;-33.882;151.134;2022-10-31T00:56:03;27.30;99.90
16392;DHT22;8305;-33.882;151.134;2022-10-31T00:58:33;27.30;99.90
16392;DHT22;8305;-33.882;151.134;2022-10-31T01:01:06;27.30;99.90
16392;DHT22;8305;-33.882;151.134;2022-10-31T01:03:37;27.40;99.90
16392;DHT22;8305;-33.882;151.134;2022-10-31T01:06:09;27.50;99.90
16392;DHT22;8305;-33.882;151.134;2022-10-31T01:08:41;27.60;99.90
16392;DHT22;8305;-33.882;151.134;2022-10-31T01:11:14;27.80;99.90
16392;DHT22;8305;-33.882;151.134;2022-10-31T01:13:45;28.00;99.90
16392;DHT22;8305;-33.882;151.134;2022-10-31T01:16:19;28.30;99.90
16392;DHT22;8305;-33.882;151.134;2022-10-31T01:18:51;28.40;99.90
16392;DHT22;8305;-33.882;151.134;2022-10-31T01:21:22;28.30;99.90
16392;DHT22;8305;-33.882;151.134;2022-10-31T01:23:54;28.30;99.90
16392;DHT22;8305;-33.882;151.134;2022-10-31T01:26:26;28.20;99.90
16392;DHT22;8305;-33.882;151.134;2022-10-31T01:28:59;28.20;99.90
16392;DHT22;8305;-33.882;151.134;2022-10-31T01:31:33;28.10;99.90
16392;DHT22;8305;-33.882;151.134;2022-10-31T01:34:04;28.10;99.90
16392;DHT22;8305;-33.882;151.134;2022-10-31T01:36:36;28.00;99.90
16392;DHT22;8305;-33.882;151.134;2022-10-31T01:39:09;27.90;99.90
16392;DHT22;8305;-33.882;151.134;2022-10-31T01:41:41;27.80;99.90
16392;DHT22;8305;-33.882;151.134;2022-10-31T01:44:49;27.90;99.90
16392;DHT22;8305;-33.882;151.134;2022-10-31T01:47:37;28.00;99.90
16392;DHT22;8305;-33.882;151.134;2022-10-31T01:50:15;28.10;99.90
16392;DHT22;8305;-33.882;151.134;2022-10-31T01:52:52;28.20;99.90
16392;DHT22;8305;-33.882;151.134;2022-10-31T01:55:25;28.20;99.90
16392;DHT22;8305;-33.882;151.134;2022-10-31T01:58:01;28.20;99.90
16392;DHT22;8305;-33.882;151.134;2022-10-31T02:00:32;28.30;99.90
16392;DHT22;8305;-33.882;151.134;2022-10-31T02:03:05;28.50;99.90
16392;DHT22;8305;-33.882;151.134;2022-10-31T02:05:36;28.70;99.90
16392;DHT22;8305;-33.882;151.134;2022-10-31T02:08:11;28.70;99.90
16392;DHT22;8305;-33.882;151.134;2022-10-31T02:10:44;28.80;99.90
16392;DHT22;8305;-33.882;151.134;2022-10-31T02:13:15;28.70;99.90
16392;DHT22;8305;-33.882;151.134;2022-10-31T02:15:48;28.60;99.90
16392;DHT22;8305;-33.882;151.134;2022-10-31T02:18:23;28.40;99.90
16392;DHT22;8305;-33.882;151.134;2022-10-31T02:21:02;28.10;99.90
16392;DHT22;8305;-33.882;151.134;2022-10-31T02:23:56;27.80;99.90
16392;DHT22;8305;-33.882;151.134;2022-10-31T02:26:43;27.50;99.90
16392;DHT22;8305;-33.882;151.134;2022-10-31T02:32:47;27.10;99.90
16392;DHT22;8305;-33.882;151.134;2022-10-31T02:35:33;27.00;99.90
16392;DHT22;8305;-33.882;151.134;2022-10-31T02:38:14;26.90;99.90
16392;DHT22;8305;-33.882;151.134;2022-10-31T02:40:53;26.70;99.90
16392;DHT22;8305;-33.882;151.134;2022-10-31T02:43:31;26.60;99.90
16392;DHT22;8305;-33.882;151.134;2022-10-31T02:46:07;26.50;99.90
16392;DHT22;8305;-33.882;151.134;2022-10-31T02:48:42;26.40;99.90
16392;DHT22;8305;-33.882;151.134;2022-10-31T02:51:14;26.40;99.90
16392;DHT22;8305;-33.882;151.134;2022-10-31T02:53:45;26.20;99.90
16392;DHT22;8305;-33.882;151.134;2022-10-31T02:56:18;26.10;99.90
16392;DHT22;8305;-33.882;151.134;2022-10-31T02:58:51;26.10;99.90
16392;DHT22;8305;-33.882;151.134;2022-10-31T03:04:40;25.90;99.90
16392;DHT22;8305;-33.882;151.134;2022-10-31T03:07:21;25.80;99.90
16392;DHT22;8305;-33.882;151.134;2022-10-31T03:09:59;25.70;99.90
16392;DHT22;8305;-33.882;151.134;2022-10-31T03:12:37;25.60;99.90
16392;DHT22;8305;-33.882;151.134;2022-10-31T03:15:17;25.50;99.90
16392;DHT22;8305;-33.882;151.134;2022-10-31T03:17:54;25.50;99.90
16392;DHT22;8305;-33.882;151.134;2022-10-31T03:20:32;25.40;99.90
16392;DHT22;8305;-33.882;151.134;2022-10-31T03:23:07;25.40;99.90
16392;DHT22;8305;-33.882;151.134;2022-10-31T03:25:40;25.30;99.90
16392;DHT22;8305;-33.882;151.134;2022-10-31T03:28:12;25.40;99.90
16392;DHT22;8305;-33.882;151.134;2022-10-31T03:30:46;25.40;99.90
16392;DHT22;8305;-33.882;151.134;2022-10-31T03:33:24;25.40;99.90
16392;DHT22;8305;-33.882;151.134;2022-10-31T03:35:59;25.50;99.90
16392;DHT22;8305;-33.882;151.134;2022-10-31T03:38:33;25.50;99.90
16392;DHT22;8305;-33.882;151.134;2022-10-31T03:41:06;25.50;99.90
16392;DHT22;8305;-33.882;151.134;2022-10-31T03:43:46;25.50;99.90
16392;DHT22;8305;-33.882;151.134;2022-10-31T03:46:18;25.60;99.90
16392;DHT22;8305;-33.882;151.134;2022-10-31T03:48:49;25.50;99.90
16392;DHT22;8305;-33.882;151.134;2022-10-31T03:51:28;25.50;99.90
16392;DHT22;8305;-33.882;151.134;2022-10-31T03:54:09;25.60;99.90
16392;DHT22;8305;-33.882;151.134;2022-10-31T03:56:44;25.60;99.90
16392;DHT22;8305;-33.882;151.134;2022-10-31T03:59:22;25.80;99.90
16392;DHT22;8305;-33.882;151.134;2022-10-31T04:01:59;25.90;99.90
16392;DHT22;8305;-33.882;151.134;2022-10-31T04:04:31;26.10;99.90
16392;DHT22;8305;-33.882;151.134;2022-10-31T04:07:06;26.20;99.90
16392;DHT22;8305;-33.882;151.134;2022-10-31T04:09:40;26.30;99.90
16392;DHT22;8305;-33.882;151.134;2022-10-31T04:12:13;26.40;99.90
16392;DHT22;8305;-33.882;151.134;2022-10-31T04:14:47;26.50;99.90
16392;DHT22;8305;-33.882;151.134;2022-10-31T04:17:20;26.60;99.90
16392;DHT22;8305;-33.882;151.134;2022-10-31T04:19:51;26.70;99.90
16392;DHT22;8305;-33.882;151.134;2022-10-31T04:22:24;26.70;99.90
16392;DHT22;8305;-33.882;151.134;2022-10-31T04:24:55;26.70;99.90
16392;DHT22;8305;-33.882;151.134;2022-10-31T04:27:25;26.60;99.90
16392;DHT22;8305;-33.882;151.134;2022-10-31T04:29:56;26.60;99.90
16392;DHT22;8305;-33.882;151.134;2022-10-31T04:32:27;26.60;99.90
16392;DHT22;8305;-33.882;151.134;2022-10-31T04:34:58;26.50;99.90
16392;DHT22;8305;-33.882;151.134;2022-10-31T04:37:30;26.50;99.90
16392;DHT22;8305;-33.882;151.134;2022-10-31T04:40:01;26.50;99.90
16392;DHT22;8305;-33.882;151.134;2022-10-31T04:42:32;26.40;99.90
16392;DHT22;8305;-33.882;151.134;2022-10-31T04:45:03;26.20;99.90
16392;DHT22;8305;-33.882;151.134;2022-10-31T04:47:35;26.20;99.90
16392;DHT22;8305;-33.882;151.134;2022-10-31T04:50:06;26.10;99.90
16392;DHT22;8305;-33.882;151.134;2022-10-31T04:52:42;26.10;99.90
16392;DHT22;8305;-33.882;151.134;2022-10-31T04:55:14;26.00;99.90
16392;DHT22;8305;-33.882;151.134;2022-10-31T04:57:46;26.00;99.90
16392;DHT22;8305;-33.882;151.134;2022-10-31T05:00:19;26.00;99.90
16392;DHT22;8305;-33.882;151.134;2022-10-31T05:02:51;26.00;99.90
16392;DHT22;8305;-33.882;151.134;2022-10-31T05:05:23;26.10;99.90
16392;DHT22;8305;-33.882;151.134;2022-10-31T05:07:56;26.10;99.90
16392;DHT22;8305;-33.882;151.134;2022-10-31T05:10:28;26.10;99.90
16392;DHT22;8305;-33.882;151.134;2022-10-31T05:13:00;26.00;99.90
16392;DHT22;8305;-33.882;151.134;2022-10-31T05:15:31;26.10;99.90
16392;DHT22;8305;-33.882;151.134;2022-10-31T05:18:01;26.10;99.90
16392;DHT22;8305;-33.882;151.134;2022-10-31T05:20:32;26.10;99.90
16392;DHT22;8305;-33.882;151.134;2022-10-31T05:23:05;26.10;99.90
16392;DHT22;8305;-33.882;151.134;2022-10-31T05:25:36;26.00;99.90
16392;DHT22;8305;-33.882;151.134;2022-10-31T05:28:06;26.00;99.90
16392;DHT22;8305;-33.882;151.134;2022-10-31T05:30:37;26.10;99.90
16392;DHT22;8305;-33.882;151.134;2022-10-31T05:33:08;26.10;99.90
16392;DHT22;8305;-33.882;151.134;2022-10-31T05:35:39;26.10;99.90
16392;DHT22;8305;-33.882;151.134;2022-10-31T05:38:11;26.10;99.90
16392;DHT22;8305;-33.882;151.134;2022-10-31T05:40:44;26.20;99.90
16392;DHT22;8305;-33.882;151.134;2022-10-31T05:43:15;26.20;99.90
16392;DHT22;8305;-33.882;151.134;2022-10-31T05:45:46;26.20;99.90
16392;DHT22;8305;-33.882;151.134;2022-10-31T05:48:16;26.20;99.90
16392;DHT22;8305;-33.882;151.134;2022-10-31T05:50:48;26.30;99.90
16392;DHT22;8305;-33.882;151.134;2022-10-31T05:53:21;26.40;99.90
16392;DHT22;8305;-33.882;151.134;2022-10-31T05:55:52;26.40;99.90
16392;DHT22;8305;-33.882;151.134;2022-10-31T05:58:23;26.60;99.90
16392;DHT22;8305;-33.882;151.134;2022-10-31T06:00:54;26.90;99.90
16392;DHT22;8305;-33.882;151.134;2022-10-31T06:03:25;27.00;99.90
16392;DHT22;8305;-33.882;151.134;2022-10-31T06:05:56;27.10;99.90
16392;DHT22;8305;-33.882;151.134;2022-10-31T06:08:28;27.20;99.90
16392;DHT22;8305;-33.882;151.134;2022-10-31T06:10:59;27.20;99.90
16392;DHT22;8305;-33.882;151.134;2022-10-31T06:13:30;27.10;99.90
16392;DHT22;8305;-33.882;151.134;2022-10-31T06:16:01;27.00;99.90
16392;DHT22;8305;-33.882;151.134;2022-10-31T06:18:31;27.00;99.90
16392;DHT22;8305;-33.882;151.134;2022-10-31T06:21:02;27.00;99.90
16392;DHT22;8305;-33.882;151.134;2022-10-31T06:23:35;27.00;99.90
16392;DHT22;8305;-33.882;151.134;2022-10-31T06:26:10;27.00;99.90
16392;DHT22;8305;-33.882;151.134;2022-10-31T06:28:42;26.90;99.90
16392;DHT22;8305;-33.882;151.134;2022-10-31T06:31:14;26.90;99.90
16392;DHT22;8305;-33.882;151.134;2022-10-31T06:33:45;26.90;99.90
16392;DHT22;8305;-33.882;151.134;2022-10-31T06:36:16;26.90;99.90
16392;DHT22;8305;-33.882;151.134;2022-10-31T06:38:49;26.80;99.90
16392;DHT22;8305;-33.882;151.134;2022-10-31T06:41:20;26.80;99.90
16392;DHT22;8305;-33.882;151.134;2022-10-31T06:43:50;26.70;99.90
16392;DHT22;8305;-33.882;151.134;2022-10-31T06:46:21;26.60;99.90
16392;DHT22;8305;-33.882;151.134;2022-10-31T06:48:52;26.50;99.90
16392;DHT22;8305;-33.882;151.134;2022-10-31T06:51:23;26.50;99.90
16392;DHT22;8305;-33.882;151.134;2022-10-31T06:53:55;26.40;99.90
16392;DHT22;8305;-33.882;151.134;2022-10-31T06:56:27;26.40;99.90
16392;DHT22;8305;-33.882;151.134;2022-10-31T06:59:04;26.30;99.90
16392;DHT22;8305;-33.882;151.134;2022-10-31T07:01:35;26.30;99.90
16392;DHT22;8305;-33.882;151.134;2022-10-31T07:04:06;26.30;99.90
16392;DHT22;8305;-33.882;151.134;2022-10-31T07:06:37;26.30;99.90
16392;DHT22;8305;-33.882;151.134;2022-10-31T07:09:10;26.20;99.90
16392;DHT22;8305;-33.882;151.134;2022-10-31T07:11:41;26.20;99.90
16392;DHT22;8305;-33.882;151.134;2022-10-31T07:14:12;26.20;99.90
16392;DHT22;8305;-33.882;151.134;2022-10-31T07:16:43;26.20;99.90
16392;DHT22;8305;-33.882;151.134;2022-10-31T07:19:13;26.20;99.90
16392;DHT22;8305;-33.882;151.134;2022-10-31T07:21:44;26.10;99.90
16392;DHT22;8305;-33.882;151.134;2022-10-31T07:24:17;26.10;99.90
16392;DHT22;8305;-33.882;151.134;2022-10-31T07:26:49;26.10;99.90
16392;DHT22;8305;-33.882;151.134;2022-10-31T07:29:19;26.10;99.90
16392;DHT22;8305;-33.882;151.134;2022-10-31T07:31:50;26.10;99.90
16392;DHT22;8305;-33.882;151.134;2022-10-31T07:34:21;26.10;99.90
16392;DHT22;8305;-33.882;151.134;2022-10-31T07:36:55;26.10;99.90
16392;DHT22;8305;-33.882;151.134;2022-10-31T07:39:28;26.10;99.90
16392;DHT22;8305;-33.882;151.134;2022-10-31T07:42:01;26.10;99.90
16392;DHT22;8305;-33.882;151.134;2022-10-31T07:44:33;26.10;99.90
16392;DHT22;8305;-33.882;151.134;2022-10-31T07:47:04;26.00;99.90
16392;DHT22;8305;-33.882;151.134;2022-10-31T07:49:35;26.00;99.90
16392;DHT22;8305;-33.882;151.134;2022-10-31T07:52:06;26.00;99.90
16392;DHT22;8305;-33.882;151.134;2022-10-31T07:54:39;26.00;99.90
16392;DHT22;8305;-33.882;151.134;2022-10-31T07:57:09;26.00;99.90
16392;DHT22;8305;-33.882;151.134;2022-10-31T07:59:40;26.00;99.90
16392;DHT22;8305;-33.882;151.134;2022-10-31T08:02:11;26.10;99.90
16392;DHT22;8305;-33.882;151.134;2022-10-31T08:04:41;26.10;99.90
16392;DHT22;8305;-33.882;151.134;2022-10-31T08:07:12;26.10;99.90
16392;DHT22;8305;-33.882;151.134;2022-10-31T08:09:45;26.10;99.90
16392;DHT22;8305;-33.882;151.134;2022-10-31T08:12:16;26.10;99.90
16392;DHT22;8305;-33.882;151.134;2022-10-31T08:14:46;26.10;99.90
16392;DHT22;8305;-33.882;151.134;2022-10-31T08:17:17;26.10;99.90
16392;DHT22;8305;-33.882;151.134;2022-10-31T08:19:48;26.10;99.90
16392;DHT22;8305;-33.882;151.134;2022-10-31T08:22:19;26.10;99.90
16392;DHT22;8305;-33.882;151.134;2022-10-31T08:24:52;26.00;99.90
16392;DHT22;8305;-33.882;151.134;2022-10-31T08:27:22;26.00;99.90
16392;DHT22;8305;-33.882;151.134;2022-10-31T08:29:53;25.90;99.90
16392;DHT22;8305;-33.882;151.134;2022-10-31T08:32:24;25.90;99.90
16392;DHT22;8305;-33.882;151.134;2022-10-31T08:34:55;26.00;99.90
16392;DHT22;8305;-33.882;151.134;2022-10-31T08:37:26;26.00;99.90
16392;DHT22;8305;-33.882;151.134;2022-10-31T08:39:59;26.10;99.90
16392;DHT22;8305;-33.882;151.134;2022-10-31T08:42:29;26.00;99.90
16392;DHT22;8305;-33.882;151.134;2022-10-31T08:45:00;26.00;99.90
16392;DHT22;8305;-33.882;151.134;2022-10-31T08:47:31;26.00;99.90
16392;DHT22;8305;-33.882;151.134;2022-10-31T08:50:02;25.90;99.90
16392;DHT22;8305;-33.882;151.134;2022-10-31T08:52:33;25.90;99.90
16392;DHT22;8305;-33.882;151.134;2022-10-31T08:55:07;25.90;99.90
16392;DHT22;8305;-33.882;151.134;2022-10-31T08:57:37;25.90;99.90
16392;DHT22;8305;-33.882;151.134;2022-10-31T09:00:09;25.80;99.90
16392;DHT22;8305;-33.882;151.134;2022-10-31T09:02:40;25.70;99.90
16392;DHT22;8305;-33.882;151.134;2022-10-31T09:05:10;25.70;99.90
16392;DHT22;8305;-33.882;151.134;2022-10-31T09:07:41;25.70;99.90
16392;DHT22;8305;-33.882;151.134;2022-10-31T09:10:14;25.70;99.90
16392;DHT22;8305;-33.882;151.134;2022-10-31T09:12:45;25.70;99.90
16392;DHT22;8305;-33.882;151.134;2022-10-31T09:15:15;25.70;99.90
16392;DHT22;8305;-33.882;151.134;2022-10-31T09:17:48;25.60;99.90
16392;DHT22;8305;-33.882;151.134;2022-10-31T09:20:18;25.60;99.90
16392;DHT22;8305;-33.882;151.134;2022-10-31T09:22:56;25.60;99.90
16392;DHT22;8305;-33.882;151.134;2022-10-31T09:25:29;25.50;99.90
16392;DHT22;8305;-33.882;151.134;2022-10-31T09:28:00;25.40;99.90
16392;DHT22;8305;-33.882;151.134;2022-10-31T09:30:33;25.30;99.90
16392;DHT22;8305;-33.882;151.134;2022-10-31T09:33:05;25.10;99.90
16392;DHT22;8305;-33.882;151.134;2022-10-31T09:35:36;24.90;99.90
16392;DHT22;8305;-33.882;151.134;2022-10-31T09:38:08;24.70;99.90
16392;DHT22;8305;-33.882;151.134;2022-10-31T09:40:42;24.60;99.90
16392;DHT22;8305;-33.882;151.134;2022-10-31T09:43:21;24.50;99.90
16392;DHT22;8305;-33.882;151.134;2022-10-31T09:46:04;24.50;99.90
16392;DHT22;8305;-33.882;151.134;2022-10-31T09:48:54;24.40;99.90
16392;DHT22;8305;-33.882;151.134;2022-10-31T09:51:32;24.40;99.90
16392;DHT22;8305;-33.882;151.134;2022-10-31T09:54:06;24.30;99.90
16392;DHT22;8305;-33.882;151.134;2022-10-31T09:56:41;24.30;99.90
16392;DHT22;8305;-33.882;151.134;2022-10-31T09:59:17;24.30;99.90
16392;DHT22;8305;-33.882;151.134;2022-10-31T10:01:53;24.30;99.90
16392;DHT22;8305;-33.882;151.134;2022-10-31T10:04:38;24.20;99.90
16392;DHT22;8305;-33.882;151.134;2022-10-31T10:07:19;24.10;99.90
16392;DHT22;8305;-33.882;151.134;2022-10-31T10:09:51;24.10;99.90
16392;DHT22;8305;-33.882;151.134;2022-10-31T10:12:32;24.00;99.90
16392;DHT22;8305;-33.882;151.134;2022-10-31T10:15:24;24.10;99.90
16392;DHT22;8305;-33.882;151.134;2022-10-31T10:18:05;24.10;99.90
16392;DHT22;8305;-33.882;151.134;2022-10-31T10:20:43;24.20;99.90
16392;DHT22;8305;-33.882;151.134;2022-10-31T10:23:34;24.20;99.90
16392;DHT22;8305;-33.882;151.134;2022-10-31T10:26:15;24.20;99.90
16392;DHT22;8305;-33.882;151.134;2022-10-31T10:28:51;24.10;99.90
16392;DHT22;8305;-33.882;151.134;2022-10-31T10:31:25;24.10;99.90
16392;DHT22;8305;-33.882;151.134;2022-10-31T10:34:06;24.10;99.90
16392;DHT22;8305;-33.882;151.134;2022-10-31T10:36:40;24.10;99.90
16392;DHT22;8305;-33.882;151.134;2022-10-31T10:39:15;24.00;99.90
16392;DHT22;8305;-33.882;151.134;2022-10-31T10:41:49;24.00;99.90
16392;DHT22;8305;-33.882;151.134;2022-10-31T10:44:45;23.90;99.90
16392;DHT22;8305;-33.882;151.134;2022-10-31T10:47:36;23.90;99.90
16392;DHT22;8305;-33.882;151.134;2022-10-31T10:50:14;23.80;99.90
16392;DHT22;8305;-33.882;151.134;2022-10-31T10:52:50;23.70;99.90
16392;DHT22;8305;-33.882;151.134;2022-10-31T10:55:33;23.60;99.90
16392;DHT22;8305;-33.882;151.134;2022-10-31T10:58:08;23.50;99.90
16392;DHT22;8305;-33.882;151.134;2022-10-31T11:00:42;23.40;99.90
16392;DHT22;8305;-33.882;151.134;2022-10-31T11:03:14;23.40;99.90
16392;DHT22;8305;-33.882;151.134;2022-10-31T11:05:48;23.30;99.90
16392;DHT22;8305;-33.882;151.134;2022-10-31T11:08:28;23.20;99.90
16392;DHT22;8305;-33.882;151.134;2022-10-31T11:11:00;23.10;99.90
16392;DHT22;8305;-33.882;151.134;2022-10-31T11:13:33;23.10;99.90
16392;DHT22;8305;-33.882;151.134;2022-10-31T11:16:08;23.00;99.90
16392;DHT22;8305;-33.882;151.134;2022-10-31T11:18:42;23.00;99.90
16392;DHT22;8305;-33.882;151.134;2022-10-31T11:21:24;22.90;99.90
16392;DHT22;8305;-33.882;151.134;2022-10-31T11:24:03;22.90;99.90
16392;DHT22;8305;-33.882;151.134;2022-10-31T11:26:34;22.90;99.90
16392;DHT22;8305;-33.882;151.134;2022-10-31T11:29:10;22.90;99.90
16392;DHT22;8305;-33.882;151.134;2022-10-31T11:31:45;22.90;99.90
16392;DHT22;8305;-33.882;151.134;2022-10-31T11:34:23;22.90;99.90
16392;DHT22;8305;-33.882;151.134;2022-10-31T11:37:02;22.90;99.90
16392;DHT22;8305;-33.882;151.134;2022-10-31T11:39:42;22.80;99.90
16392;DHT22;8305;-33.882;151.134;2022-10-31T11:42:14;22.80;99.90
16392;DHT22;8305;-33.882;151.134;2022-10-31T11:44:45;22.80;99.90
16392;DHT22;8305;-33.882;151.134;2022-10-31T11:47:21;22.70;99.90
16392;DHT22;8305;-33.882;151.134;2022-10-31T11:49:54;22.70;99.90
16392;DHT22;8305;-33.882;151.134;2022-10-31T11:52:27;22.70;99.90
16392;DHT22;8305;-33.882;151.134;2022-10-31T11:55:01;22.70;99.90
16392;DHT22;8305;-33.882;151.134;2022-10-31T11:57:33;22.70;99.90
16392;DHT22;8305;-33.882;151.134;2022-10-31T12:00:22;22.60;99.90
16392;DHT22;8305;-33.882;151.134;2022-10-31T12:03:10;22.60;99.90
16392;DHT22;8305;-33.882;151.134;2022-10-31T12:05:42;22.50;99.90
16392;DHT22;8305;-33.882;151.134;2022-10-31T12:08:14;22.50;99.90
16392;DHT22;8305;-33.882;151.134;2022-10-31T12:10:51;22.40;99.90
16392;DHT22;8305;-33.882;151.134;2022-10-31T12:13:33;22.40;99.90
16392;DHT22;8305;-33.882;151.134;2022-10-31T12:16:11;22.30;99.90
16392;DHT22;8305;-33.882;151.134;2022-10-31T12:18:55;22.30;99.90
16392;DHT22;8305;-33.882;151.134;2022-10-31T12:21:42;22.30;99.90
16392;DHT22;8305;-33.882;151.134;2022-10-31T12:24:23;22.20;99.90
16392;DHT22;8305;-33.882;151.134;2022-10-31T12:27:05;22.10;99.90
16392;DHT22;8305;-33.882;151.134;2022-10-31T12:29:51;22.10;99.90
16392;DHT22;8305;-33.882;151.134;2022-10-31T12:32:33;22.00;99.90
16392;DHT22;8305;-33.882;151.134;2022-10-31T12:35:25;21.90;99.90
16392;DHT22;8305;-33.882;151.134;2022-10-31T12:38:14;21.90;99.90
16392;DHT22;8305;-33.882;151.134;2022-10-31T12:40:59;21.80;99.90
16392;DHT22;8305;-33.882;151.134;2022-10-31T12:43:39;21.80;99.90
16392;DHT22;8305;-33.882;151.134;2022-10-31T12:46:21;21.70;99.90
16392;DHT22;8305;-33.882;151.134;2022-10-31T12:49:11;21.70;99.90
16392;DHT22;8305;-33.882;151.134;2022-10-31T12:51:53;21.60;99.90
16392;DHT22;8305;-33.882;151.134;2022-10-31T12:57:27;21.60;99.90
16392;DHT22;8305;-33.882;151.134;2022-10-31T13:00:02;21.60;99.90
16392;DHT22;8305;-33.882;151.134;2022-10-31T13:02:38;21.60;99.90
16392;DHT22;8305;-33.882;151.134;2022-10-31T13:05:16;21.60;99.90
16392;DHT22;8305;-33.882;151.134;2022-10-31T13:07:55;21.60;99.90
16392;DHT22;8305;-33.882;151.134;2022-10-31T13:10:33;21.60;99.90
16392;DHT22;8305;-33.882;151.134;2022-10-31T13:13:13;21.60;99.90
16392;DHT22;8305;-33.882;151.134;2022-10-31T13:15:49;21.60;99.90
16392;DHT22;8305;-33.882;151.134;2022-10-31T13:18:29;21.60;99.90
16392;DHT22;8305;-33.882;151.134;2022-10-31T13:21:10;21.60;99.90
16392;DHT22;8305;-33.882;151.134;2022-10-31T13:23:48;21.60;99.90
16392;DHT22;8305;-33.882;151.134;2022-10-31T13:26:26;21.60;99.90
16392;DHT22;8305;-33.882;151.134;2022-10-31T13:29:11;21.70;99.90
16392;DHT22;8305;-33.882;151.134;2022-10-31T13:31:47;21.60;99.90
16392;DHT22;8305;-33.882;151.134;2022-10-31T13:34:30;21.70;99.90
16392;DHT22;8305;-33.882;151.134;2022-10-31T13:37:11;21.70;99.90
16392;DHT22;8305;-33.882;151.134;2022-10-31T13:39:58;21.70;99.90
16392;DHT22;8305;-33.882;151.134;2022-10-31T13:42:51;21.70;99.90
16392;DHT22;8305;-33.882;151.134;2022-10-31T13:45:25;21.70;99.90
16392;DHT22;8305;-33.882;151.134;2022-10-31T13:48:00;21.80;99.90
16392;DHT22;8305;-33.882;151.134;2022-10-31T13:50:32;21.80;99.90
16392;DHT22;8305;-33.882;151.134;2022-10-31T13:53:20;21.90;99.90
16392;DHT22;8305;-33.882;151.134;2022-10-31T13:56:09;22.00;99.90
16392;DHT22;8305;-33.882;151.134;2022-10-31T13:58:54;22.10;99.90
16392;DHT22;8305;-33.882;151.134;2022-10-31T14:01:27;22.20;99.90
16392;DHT22;8305;-33.882;151.134;2022-10-31T14:04:02;22.20;99.90
16392;DHT22;8305;-33.882;151.134;2022-10-31T14:06:50;22.30;99.90
16392;DHT22;8305;-33.882;151.134;2022-10-31T14:09:31;22.40;99.90
16392;DHT22;8305;-33.882;151.134;2022-10-31T14:12:07;22.40;99.90
16392;DHT22;8305;-33.882;151.134;2022-10-31T14:14:47;22.50;99.90
16392;DHT22;8305;-33.882;151.134;2022-10-31T14:17:22;22.60;99.90
16392;DHT22;8305;-33.882;151.134;2022-10-31T14:22:48;22.60;99.90
16392;DHT22;8305;-33.882;151.134;2022-10-31T14:25:30;22.70;99.90
16392;DHT22;8305;-33.882;151.134;2022-10-31T14:28:19;22.70;99.90
16392;DHT22;8305;-33.882;151.134;2022-10-31T14:30:54;22.70;99.90
16392;DHT22;8305;-33.882;151.134;2022-10-31T14:33:27;22.70;99.90
16392;DHT22;8305;-33.882;151.134;2022-10-31T14:36:02;22.70;99.90
16392;DHT22;8305;-33.882;151.134;2022-10-31T14:38:44;22.70;99.90
16392;DHT22;8305;-33.882;151.134;2022-10-31T14:41:31;22.70;99.90
16392;DHT22;8305;-33.882;151.134;2022-10-31T14:47:21;22.70;99.90
16392;DHT22;8305;-33.882;151.134;2022-10-31T14:50:12;22.70;99.90
16392;DHT22;8305;-33.882;151.134;2022-10-31T14:52:49;22.70;99.90
16392;DHT22;8305;-33.882;151.134;2022-10-31T14:55:21;22.70;99.90
16392;DHT22;8305;-33.882;151.134;2022-10-31T14:57:55;22.70;99.90
16392;DHT22;8305;-33.882;151.134;2022-10-31T15:00:30;22.60;99.90
16392;DHT22;8305;-33.882;151.134;2022-10-31T15:03:12;22.70;99.90
16392;DHT22;8305;-33.882;151.134;2022-10-31T15:05:48;22.60;99.90
16392;DHT22;8305;-33.882;151.134;2022-10-31T15:08:35;22.60;99.90
16392;DHT22;8305;-33.882;151.134;2022-10-31T15:11:15;22.60;99.90
16392;DHT22;8305;-33.882;151.134;2022-10-31T15:13:47;22.60;99.90
16392;DHT22;8305;-33.882;151.134;2022-10-31T15:16:36;22.60;99.90
16392;DHT22;8305;-33.882;151.134;2022-10-31T15:19:41;22.60;99.90
16392;DHT22;8305;-33.882;151.134;2022-10-31T15:22:26;22.70;99.90
16392;DHT22;8305;-33.882;151.134;2022-10-31T15:28:26;22.70;99.90
16392;DHT22;8305;-33.882;151.134;2022-10-31T15:31:05;22.70;99.90
16392;DHT22;8305;-33.882;151.134;2022-10-31T15:34:05;22.70;99.90
16392;DHT22;8305;-33.882;151.134;2022-10-31T15:36:50;22.60;99.90
16392;DHT22;8305;-33.882;151.134;2022-10-31T15:39:31;22.70;99.90
16392;DHT22;8305;-33.882;151.134;2022-10-31T15:42:45;22.70;99.90
16392;DHT22;8305;-33.882;151.134;2022-10-31T15:45:33;22.60;99.90
16392;DHT22;8305;-33.882;151.134;2022-10-31T15:48:22;22.70;99.90
16392;DHT22;8305;-33.882;151.134;2022-10-31T15:51:13;22.70;99.90
16392;DHT22;8305;-33.882;151.134;2022-10-31T15:53:53;22.70;99.90
16392;DHT22;8305;-33.882;151.134;2022-10-31T15:56:26;22.70;99.90
16392;DHT22;8305;-33.882;151.134;2022-10-31T15:58:59;22.70;99.90
16392;DHT22;8305;-33.882;151.134;2022-10-31T16:01:31;22.70;99.90
16392;DHT22;8305;-33.882;151.134;2022-10-31T16:04:04;22.70;99.90
16392;DHT22;8305;-33.882;151.134;2022-10-31T16:06:37;22.70;99.90
16392;DHT22;8305;-33.882;151.134;2022-10-31T16:09:22;22.60;99.90
16392;DHT22;8305;-33.882;151.134;2022-10-31T16:11:53;22.60;99.90